createdAt,value
2023-02-11T00:00:43.174Z,46.90
2023-02-11T00:06:03.996Z,47.20
2023-02-11T00:11:08.491Z,47.40
2023-02-11T00:16:19.644Z,47.50
2023-02-11T00:21:26.208Z,47.60
2023-02-11T00:26:33.129Z,47.50
2023-02-11T00:31:37.435Z,47.20
2023-02-11T00:36:42.898Z,47.10
2023-02-11T00:41:46.804Z,47.60
2023-02-11T00:46:50.941Z,47.60
2023-02-11T00:51:54.976Z,46.80
2023-02-11T00:57:00.129Z,46.00
2023-02-11T01:02:04.020Z,45.30
2023-02-11T01:07:07.874Z,44.80
2023-02-11T01:12:11.984Z,44.50
2023-02-11T01:17:16.983Z,45.20
2023-02-11T01:22:21.320Z,45.80
2023-02-11T01:27:25.254Z,45.20
2023-02-11T01:32:29.506Z,45.60
2023-02-11T01:37:34.556Z,45.40
2023-02-11T01:42:38.484Z,45.20
2023-02-11T01:47:42.620Z,45.10
2023-02-11T01:52:48.709Z,45.20
2023-02-11T01:57:57.317Z,44.70
2023-02-11T02:03:06.484Z,44.50
2023-02-11T02:08:33.735Z,44.30
2023-02-11T02:13:39.413Z,44.70
2023-02-11T02:19:14.437Z,44.80
2023-02-11T02:24:47.988Z,50.90
2023-02-11T02:30:04.163Z,46.90
2023-02-11T02:35:42.277Z,47.00
2023-02-11T02:41:09.141Z,47.50
2023-02-11T02:46:25.617Z,47.80
2023-02-11T02:52:01.190Z,48.10
2023-02-11T02:57:12.695Z,47.90
2023-02-11T03:02:34.132Z,48.40
2023-02-11T03:08:00.546Z,48.80
2023-02-11T03:13:06.395Z,48.50
2023-02-11T03:18:14.148Z,48.10
2023-02-11T03:23:41.743Z,48.60
2023-02-11T03:29:11.956Z,48.40
2023-02-11T03:34:24.151Z,48.50
2023-02-11T03:39:33.814Z,48.50
2023-02-11T03:44:42.603Z,48.60
2023-02-11T03:49:50.888Z,48.50
2023-02-11T03:54:58.684Z,48.30
2023-02-11T04:00:02.979Z,48.40
2023-02-11T04:05:17.132Z,48.80
2023-02-11T04:10:21.458Z,49.00
2023-02-11T04:15:25.604Z,49.10
2023-02-11T04:20:30.363Z,49.30
2023-02-11T04:25:34.492Z,48.80
2023-02-11T04:30:38.548Z,49.30
2023-02-11T04:35:42.872Z,49.30
2023-02-11T04:40:46.896Z,49.00
2023-02-11T04:45:51.222Z,48.10
2023-02-11T04:50:55.457Z,47.60
2023-02-11T04:55:59.602Z,47.70
2023-02-11T05:01:12.721Z,47.30
2023-02-11T05:06:16.689Z,47.30
2023-02-11T05:11:24.396Z,46.80
2023-02-11T05:16:28.652Z,46.70
2023-02-11T05:21:32.675Z,46.70
2023-02-11T05:26:36.793Z,47.00
2023-02-11T05:31:41.046Z,46.40
2023-02-11T05:36:45.263Z,46.30
2023-02-11T05:41:49.304Z,46.10
2023-02-11T05:46:53.327Z,46.00
2023-02-11T05:51:57.356Z,45.80
2023-02-11T05:57:01.301Z,46.00
2023-02-11T06:02:05.227Z,45.90
2023-02-11T06:07:12.351Z,45.70
2023-02-11T06:12:16.434Z,45.80
2023-02-11T06:17:20.380Z,46.30
2023-02-11T06:22:27.193Z,45.70
2023-02-11T06:27:31.220Z,45.70
2023-02-11T06:32:44.459Z,45.80
2023-02-11T06:37:50.137Z,45.50
2023-02-11T06:42:54.290Z,45.60
2023-02-11T06:47:58.614Z,45.70
2023-02-11T06:53:02.758Z,45.60
2023-02-11T06:58:06.875Z,45.20
2023-02-11T07:03:11.058Z,45.30
2023-02-11T07:08:15.559Z,45.20
2023-02-11T07:13:19.695Z,45.20
2023-02-11T07:18:24.444Z,45.20
2023-02-11T07:23:28.994Z,45.50
2023-02-11T07:28:34.324Z,45.30
2023-02-11T07:33:39.112Z,45.50
2023-02-11T07:38:44.154Z,45.70
2023-02-11T07:43:48.903Z,46.00
2023-02-11T07:48:53.436Z,46.40
2023-02-11T07:53:59.932Z,46.60
2023-02-11T07:59:04.692Z,46.80
2023-02-11T08:04:08.945Z,46.80
2023-02-11T08:09:18.273Z,46.90
2023-02-11T08:14:22.290Z,46.80
2023-02-11T08:19:26.440Z,47.30
2023-02-11T08:24:30.681Z,47.20
2023-02-11T08:29:34.901Z,47.50
2023-02-11T08:34:38.850Z,47.50
2023-02-11T08:39:42.876Z,47.50
2023-02-11T08:44:47.009Z,47.40
2023-02-11T08:49:51.248Z,47.90
2023-02-11T08:54:55.381Z,47.80
2023-02-11T08:59:59.306Z,47.80
2023-02-11T09:05:03.748Z,47.70
2023-02-11T09:10:08.320Z,48.00
2023-02-11T09:15:14.788Z,48.50
2023-02-11T09:20:20.652Z,48.40
2023-02-11T09:25:25.093Z,48.40
2023-02-11T09:30:29.211Z,48.50
2023-02-11T09:35:33.991Z,48.30
2023-02-11T09:40:44.148Z,48.40
2023-02-11T09:45:48.860Z,48.30
2023-02-11T09:51:02.223Z,48.40
2023-02-11T09:56:13.179Z,47.80
2023-02-11T10:01:35.946Z,46.80
2023-02-11T10:06:49.684Z,46.30
2023-02-11T10:12:03.825Z,46.30
2023-02-11T10:17:26.294Z,45.40
2023-02-11T10:22:33.086Z,45.70
2023-02-11T10:27:37.213Z,45.50
2023-02-11T10:32:56.435Z,45.90
2023-02-11T10:38:01.244Z,46.20
2023-02-11T10:43:11.074Z,46.10
2023-02-11T10:48:39.819Z,45.90
2023-02-11T10:53:45.164Z,46.60
2023-02-11T10:59:06.725Z,46.50
2023-02-11T11:04:30.193Z,47.50
2023-02-11T11:09:47.188Z,48.00
2023-02-11T11:14:59.004Z,48.60
2023-02-11T11:20:29.650Z,48.90
2023-02-11T11:25:33.684Z,49.00
2023-02-11T11:30:43.389Z,49.20
2023-02-11T11:36:02.051Z,49.50
2023-02-11T11:41:20.600Z,49.20
2023-02-11T11:46:31.945Z,49.30
2023-02-11T11:51:40.193Z,48.70
2023-02-11T11:57:16.861Z,48.50
2023-02-11T12:02:33.586Z,48.60
2023-02-11T12:07:37.922Z,48.70
2023-02-11T12:12:54.037Z,48.60
2023-02-11T12:18:09.276Z,49.00
2023-02-11T12:23:50.003Z,49.40
2023-02-11T12:29:37.417Z,49.40
2023-02-11T12:35:06.018Z,50.20
2023-02-11T12:40:19.367Z,50.10
2023-02-11T12:45:45.299Z,50.60
2023-02-11T12:51:25.626Z,50.60
2023-02-11T12:56:59.657Z,51.40
2023-02-11T13:02:16.640Z,51.50
2023-02-11T13:07:37.631Z,51.50
2023-02-11T13:13:08.500Z,51.50
2023-02-11T13:18:39.187Z,51.70
2023-02-11T13:24:01.446Z,51.90
2023-02-11T13:29:35.987Z,51.80
2023-02-11T13:34:44.968Z,52.10
2023-02-11T13:40:07.710Z,53.70
2023-02-11T13:45:25.830Z,53.40
2023-02-11T13:50:36.801Z,53.70
2023-02-11T13:55:46.373Z,54.20
2023-02-11T14:00:53.229Z,53.20
2023-02-11T14:06:44.451Z,53.10
2023-02-11T14:11:53.699Z,54.40
2023-02-11T14:17:00.655Z,53.70
2023-02-11T14:22:26.359Z,54.30
2023-02-11T14:27:43.181Z,54.40
2023-02-11T14:33:26.013Z,53.10
2023-02-11T14:38:39.571Z,53.80
2023-02-11T14:43:49.212Z,54.60
2023-02-11T14:48:58.579Z,54.70
2023-02-11T14:54:26.574Z,54.10
2023-02-11T14:59:33.041Z,54.10
2023-02-11T15:04:42.712Z,53.80
2023-02-11T15:09:52.163Z,53.70
2023-02-11T15:15:00.924Z,53.50
2023-02-11T15:20:21.391Z,53.50
2023-02-11T15:25:28.254Z,53.10
2023-02-11T15:30:36.441Z,53.80
2023-02-11T15:35:43.290Z,54.10
2023-02-11T15:40:57.397Z,53.80
2023-02-11T15:46:04.070Z,54.10
2023-02-11T15:51:14.083Z,54.20
2023-02-11T15:56:34.375Z,55.10
2023-02-11T16:01:40.594Z,55.30
2023-02-11T16:06:49.276Z,55.80
2023-02-11T16:11:59.709Z,56.10
2023-02-11T16:17:11.760Z,56.30
2023-02-11T16:22:31.144Z,56.10
2023-02-11T16:27:43.021Z,56.10
2023-02-11T16:32:48.850Z,56.30
2023-02-11T16:37:57.953Z,56.00
2023-02-11T16:43:09.079Z,54.90
2023-02-11T16:48:19.054Z,55.00
2023-02-11T16:53:27.063Z,55.00
2023-02-11T16:58:33.251Z,55.00
2023-02-11T17:03:44.205Z,54.80
2023-02-11T17:08:50.900Z,55.20
2023-02-11T17:13:58.049Z,55.00
2023-02-11T17:19:05.887Z,54.70
2023-02-11T17:24:12.777Z,54.80
2023-02-11T17:29:24.843Z,55.20
2023-02-11T17:34:31.322Z,54.30
2023-02-11T17:39:38.110Z,54.80
2023-02-11T17:44:48.046Z,54.70
2023-02-11T17:49:54.006Z,53.90
2023-02-11T17:55:01.153Z,54.00
2023-02-11T18:00:12.010Z,54.40
2023-02-11T18:05:20.717Z,53.10
2023-02-11T18:10:27.711Z,52.60
2023-02-11T18:15:35.103Z,53.00
2023-02-11T18:20:44.073Z,52.60
2023-02-11T18:25:50.646Z,53.30
2023-02-11T18:31:01.359Z,53.80
2023-02-11T18:36:12.823Z,51.70
2023-02-11T18:41:50.598Z,51.60
2023-02-11T18:47:17.447Z,51.30
2023-02-11T18:52:30.924Z,50.00
2023-02-11T18:57:40.701Z,50.40
2023-02-11T19:08:09.367Z,50.40
2023-02-11T19:13:15.802Z,50.40
2023-02-11T19:18:22.537Z,49.80
2023-02-11T19:23:28.755Z,50.10
2023-02-11T19:28:45.656Z,49.60
2023-02-11T19:33:51.927Z,50.00
2023-02-11T19:39:02.826Z,50.80
2023-02-11T19:44:10.276Z,50.70
2023-02-11T19:49:27.049Z,51.60
2023-02-11T19:54:34.953Z,51.50
2023-02-11T19:59:40.858Z,51.90
2023-02-11T20:04:46.939Z,52.00
2023-02-11T20:09:54.031Z,52.00
2023-02-11T20:14:59.527Z,52.00
2023-02-11T20:20:06.614Z,52.20
2023-02-11T20:25:15.069Z,51.80
2023-02-11T20:30:20.284Z,51.40
2023-02-11T20:35:28.337Z,51.80
2023-02-11T20:40:39.405Z,52.20
2023-02-11T20:45:48.421Z,51.40
2023-02-11T20:50:55.448Z,52.60
2023-02-11T20:56:07.262Z,52.40
2023-02-11T21:01:47.175Z,51.90
2023-02-11T21:06:56.570Z,53.00
2023-02-11T21:12:04.633Z,53.30
2023-02-11T21:17:13.462Z,54.40
2023-02-11T21:22:21.606Z,55.00
2023-02-11T21:27:34.304Z,54.60
2023-02-11T21:32:40.361Z,54.20
2023-02-11T21:37:46.035Z,54.20
2023-02-11T21:42:51.969Z,55.30
2023-02-11T21:47:57.369Z,56.80
2023-02-11T21:53:06.632Z,56.20
2023-02-11T21:58:15.490Z,55.70
2023-02-11T22:03:21.351Z,55.10
2023-02-11T22:08:26.201Z,54.50
2023-02-11T22:13:30.860Z,55.20
2023-02-11T22:18:36.794Z,58.60
2023-02-11T22:23:41.072Z,57.10
2023-02-11T22:28:45.607Z,57.20
2023-02-11T22:33:49.749Z,57.30
2023-02-11T22:38:54.284Z,57.50
2023-02-11T22:43:59.023Z,57.50
2023-02-11T22:49:04.395Z,57.40
2023-02-11T22:54:12.608Z,57.50
2023-02-11T22:59:16.652Z,57.30
2023-02-11T23:04:21.413Z,55.90
2023-02-11T23:09:25.437Z,54.70
2023-02-11T23:14:29.582Z,54.00
2023-02-11T23:19:33.926Z,53.40
2023-02-11T23:24:38.244Z,52.90
2023-02-11T23:29:42.493Z,52.70
2023-02-11T23:34:46.716Z,52.70
2023-02-11T23:39:50.762Z,52.80
2023-02-11T23:44:54.794Z,52.60
2023-02-11T23:49:59.696Z,52.90
2023-02-11T23:55:04.319Z,52.50
